Time,TemperatureF,DewpointF,PressureIn,WindDirection,WindDirectionDegrees,WindSpeedMPH,WindSpeedGustMPH,Humidity,HourlyPrecipIn,Conditions,Clouds,dailyrainin,SolarRadiationWatts/m^2,SoftwareType,DateUTC
2013-07-05 00:00:00,69.6,66.9,30.12,WSW,251,0.0,0.0,91,0.26,SCT,OVC,0.41,0.0,WeatherDisplay:10.37,2013-07-05 04:00:00,
2013-07-05 00:01:00,69.6,66.9,30.12,WSW,251,0.0,0.0,91,0.26,SCT,OVC,0.41,0.0,WeatherDisplay:10.37,2013-07-05 04:01:00,
2013-07-05 00:06:00,69.6,66.9,30.12,WSW,251,0.0,0.0,91,0.26,SCT,OVC,0.41,0.0,WeatherDisplay:10.37,2013-07-05 04:06:00,
2013-07-05 00:09:00,69.5,67.1,30.12,WSW,251,0.0,0.0,92,0.26,SCT,OVC,0.41,0.0,WeatherDisplay:10.37,2013-07-05 04:09:00,
2013-07-05 00:11:00,69.5,67.1,30.12,WSW,251,0.0,0.0,92,0.26,SCT,OVC,0.41,0.0,WeatherDisplay:10.37,2013-07-05 04:11:00,
2013-07-05 00:16:00,69.5,67.1,30.12,WSW,251,0.0,0.0,92,0.26,SCT,OVC,0.41,0.0,WeatherDisplay:10.37,2013-07-05 04:16:00,
2013-07-05 00:26:00,69.2,66.5,30.12,WSW,251,0.0,0.0,91,0.23,SCT,OVC,0.41,0.0,WeatherDisplay:10.37,2013-07-05 04:26:00,
2013-07-05 00:31:00,69.2,66.5,30.12,WSW,251,0.0,0.0,91,0.23,SCT,OVC,0.41,0.0,WeatherDisplay:10.37,2013-07-05 04:31:00,
2013-07-05 00:38:00,69.2,66.8,30.13,WSW,251,0.0,0.0,92,0.19,SCT,OVC,0.41,0.0,WeatherDisplay:10.37,2013-07-05 04:38:00,
2013-07-05 00:43:00,69.2,66.8,30.13,WSW,251,0.0,0.0,92,0.19,SCT,OVC,0.41,0.0,WeatherDisplay:10.37,2013-07-05 04:43:00,
2013-07-05 00:50:00,69.1,66.7,30.13,WSW,251,0.0,0.0,92,0.17,SCT,OVC,0.41,0.0,WeatherDisplay:10.37,2013-07-05 04:50:00,
2013-07-05 00:55:00,69.1,66.7,30.13,WSW,251,0.0,0.0,92,0.17,SCT,OVC,0.41,0.0,WeatherDisplay:10.37,2013-07-05 04:55:00,
2013-07-05 01:02:00,69.2,66.8,30.13,WSW,251,0.0,0.0,92,0.15,SCT,OVC,0.41,0.0,WeatherDisplay:10.37,2013-07-05 05:02:00,
2013-07-05 01:07:00,69.2,66.8,30.13,WSW,251,0.0,0.0,92,0.15,SCT,OVC,0.41,0.0,WeatherDisplay:10.37,2013-07-05 05:07:00,
2013-07-05 01:14:00,69.2,66.8,30.13,WSW,251,0.0,0.0,92,0.09,SCT,OVC,0.41,0.0,WeatherDisplay:10.37,2013-07-05 05:14:00,
2013-07-05 01:19:00,69.2,66.8,30.13,WSW,251,0.0,0.0,92,0.09,SCT,OVC,0.41,0.0,WeatherDisplay:10.37,2013-07-05 05:19:00,
2013-07-05 01:26:00,69.4,67.0,30.13,WSW,251,0.0,0.0,92,0.06,SCT,OVC,0.41,0.0,WeatherDisplay:10.37,2013-07-05 05:26:00,
2013-07-05 01:31:00,69.4,67.0,30.13,WSW,251,0.0,0.0,92,0.06,SCT,OVC,0.41,0.0,WeatherDisplay:10.37,2013-07-05 05:31:00,
2013-07-05 01:38:00,69.3,66.9,30.13,WSW,251,0.0,0.0,92,0.05,SCT,OVC,0.41,0.0,WeatherDisplay:10.37,2013-07-05 05:38:00,
2013-07-05 01:43:00,69.3,66.9,30.13,WSW,251,0.0,0.0,92,0.05,SCT,OVC,0.41,0.0,WeatherDisplay:10.37,2013-07-05 05:43:00,
2013-07-05 01:50:00,69.3,66.9,30.13,WSW,251,0.0,0.0,92,0.04,SCT,OVC,0.41,0.0,WeatherDisplay:10.37,2013-07-05 05:50:00,
2013-07-05 01:55:00,69.3,66.9,30.13,WSW,251,0.0,0.0,92,0.04,SCT,OVC,0.41,0.0,WeatherDisplay:10.37,2013-07-05 05:55:00,
2013-07-05 02:02:00,69.3,66.9,30.13,WSW,251,0.0,0.0,92,0.03,SCT,OVC,0.41,0.0,WeatherDisplay:10.37,2013-07-05 06:02:00,
2013-07-05 02:07:00,69.3,66.9,30.13,WSW,251,0.0,0.0,92,0.03,SCT,OVC,0.41,0.0,WeatherDisplay:10.37,2013-07-05 06:07:00,
2013-07-05 02:14:00,69.3,66.9,30.13,WSW,251,0.0,0.0,92,0.03,SCT,OVC,0.41,0.0,WeatherDisplay:10.37,2013-07-05 06:14:00,
2013-07-05 02:19:00,69.3,66.9,30.13,WSW,251,0.0,0.0,92,0.03,SCT,OVC,0.41,0.0,WeatherDisplay:10.37,2013-07-05 06:19:00,
2013-07-05 02:26:00,69.3,66.9,30.13,WSW,251,0.0,0.0,92,0.02,SCT,OVC,0.41,0.0,WeatherDisplay:10.37,2013-07-05 06:26:00,
2013-07-05 02:31:00,69.3,66.9,30.13,WSW,251,0.0,0.0,92,0.02,SCT,OVC,0.41,0.0,WeatherDisplay:10.37,2013-07-05 06:31:00,
2013-07-05 02:38:00,69.2,66.8,30.13,WSW,251,0.0,0.0,92,0.01,SCT,OVC,0.41,0.0,WeatherDisplay:10.37,2013-07-05 06:38:00,
2013-07-05 02:43:00,69.2,66.8,30.13,WSW,251,0.0,0.0,92,0.01,SCT,OVC,0.41,0.0,WeatherDisplay:10.37,2013-07-05 06:43:00,
2013-07-05 02:51:00,69.3,67.2,30.13,WSW,251,0.0,0.0,93,0.00,BKN,OVC,0.41,0.0,WeatherDisplay:10.37,2013-07-05 06:51:00,
2013-07-05 02:52:00,69.3,67.2,30.13,WSW,251,0.0,0.0,93,0.00,BKN,OVC,0.41,0.0,WeatherDisplay:10.37,2013-07-05 06:52:00,
2013-07-05 02:57:00,69.3,67.2,30.13,WSW,251,0.0,0.0,93,0.00,BKN,OVC,0.41,0.0,WeatherDisplay:10.37,2013-07-05 06:57:00,
2013-07-05 03:48:00,69.3,67.2,30.13,WSW,251,0.0,0.0,93,0.00,BKN,OVC,0.41,0.0,WeatherDisplay:10.37,2013-07-05 07:48:00,
2013-07-05 03:53:00,69.3,67.2,30.13,WSW,251,0.0,0.0,93,0.00,BKN,OVC,0.41,0.0,WeatherDisplay:10.37,2013-07-05 07:53:00,
2013-07-05 03:58:00,69.3,67.2,30.13,WSW,251,0.0,0.0,93,0.00,BKN,OVC,0.41,0.0,WeatherDisplay:10.37,2013-07-05 07:58:00,
2013-07-05 04:43:00,69.3,67.2,30.13,WSW,251,0.0,0.0,93,0.00,BKN,OVC,0.41,0.0,WeatherDisplay:10.37,2013-07-05 08:43:00,
2013-07-05 11:30:00,69.3,67.2,30.13,WSW,251,0.0,0.0,93,0.00,BKN,OVC,0.41,0.0,WeatherDisplay:10.37,2013-07-05 15:30:00,
2013-07-05 21:05:00,71.0,67.3,30.08,WSW,248,0.0,3.0,88,0.00,RA,OVC,0.54,0.0,WeatherDisplay:10.37,2013-07-06 01:05:00,
2013-07-05 21:18:00,70.8,67.1,30.08,WSW,248,0.0,1.0,88,0.00,CLR,OVC,0.54,0.0,WeatherDisplay:10.37,2013-07-06 01:18:00,
2013-07-05 21:32:00,70.6,67.2,30.08,WSW,249,0.0,2.0,89,0.00,CLR,OVC,0.54,0.0,WeatherDisplay:10.37,2013-07-06 01:32:00,
2013-07-05 21:58:00,70.1,66.7,30.09,WSW,253,0.2,18.4,89,0.00,BKN,OVC,0.54,0.0,WeatherDisplay:10.37,2013-07-06 01:58:00,
2013-07-05 21:59:00,70.1,66.7,30.09,WSW,253,0.2,18.4,89,0.00,BKN,OVC,0.54,0.0,WeatherDisplay:10.37,2013-07-06 01:59:00,
2013-07-05 22:04:00,70.1,66.7,30.09,WSW,253,0.2,18.4,89,0.00,BKN,OVC,0.54,0.0,WeatherDisplay:10.37,2013-07-06 02:04:00,
2013-07-05 22:29:00,69.5,66.1,30.10,WSW,253,0.9,18.4,89,0.00,BKN,OVC,0.54,0.0,WeatherDisplay:10.37,2013-07-06 02:29:00,
2013-07-05 22:34:00,69.5,66.1,30.10,WSW,253,0.9,18.4,89,0.00,BKN,OVC,0.54,0.0,WeatherDisplay:10.37,2013-07-06 02:34:00,
2013-07-05 22:46:00,69.5,66.1,30.10,WSW,253,0.9,18.4,89,0.00,BKN,OVC,0.54,0.0,WeatherDisplay:10.37,2013-07-06 02:46:00,
2013-07-05 22:58:00,69.6,66.2,30.09,WSW,238,2.2,7.0,89,0.00,BKN,OVC,0.54,0.0,WeatherDisplay:10.37,2013-07-06 02:58:00,
2013-07-05 22:59:00,69.6,66.2,30.09,WSW,238,2.2,7.0,89,0.00,BKN,OVC,0.54,0.0,WeatherDisplay:10.37,2013-07-06 02:59:00,
2013-07-05 23:04:00,69.6,66.2,30.09,WSW,238,2.2,7.0,89,0.00,BKN,OVC,0.54,0.0,WeatherDisplay:10.37,2013-07-06 03:04:00,
2013-07-05 23:34:00,69.5,66.1,30.09,WSW,237,0.1,6.9,89,0.00,BKN,OVC,0.54,0.0,WeatherDisplay:10.37,2013-07-06 03:34:00,
2013-07-05 23:35:00,69.5,66.1,30.09,WSW,241,0.0,1.0,89,0.00,CLR,OVC,0.54,0.0,WeatherDisplay:10.37,2013-07-06 03:35:00,
2013-07-05 23:54:00,69.4,66.0,30.11,SW,236,1.1,18.4,89,0.00,BKN,OVC,0.54,0.0,WeatherDisplay:10.37,2013-07-06 03:54:00,
2013-07-05 23:58:00,69.4,66.0,30.11,SW,236,0.0,3.5,89,0.00,BKN,OVC,0.54,0.0,WeatherDisplay:10.37,2013-07-06 03:58:00,
2013-07-05 23:59:00,69.4,66.0,30.11,SW,236,0.0,3.5,89,0.00,BKN,OVC,0.54,0.0,WeatherDisplay:10.37,2013-07-06 03:59:00,